• Join FlightAware (Why Join?)
  • Login
  • US Flag 
06:00AM EDT


 

Airport Tracker/Info


-or-


 

Live Flight TrackerFlight Track Log ✈ N8430N ✈ 27-Apr-2013 ✈ KPIA - 3CK

Flight Track Log - Related Links

Times and Time Zones

All times are in EDT time to prevent confusion due to time zone crossing. See the N8430N flight status page for this flight to view local times or setup timezone preferences in your user account.

Time Position Orientation Groundspeed Altitude Reporting Facility
EDT Latitude Longitude Course Direction KTS MPH feet Rate Location/Type
04:02PM 40.6250 -89.6833 37° Northeast 129 148 3,900  Level Chicago Center
04:03PM 40.6586 -89.6636 24° Northeast 132 152 4,800 840 Climbing Chicago Center
04:04PM 40.6906 -89.6447 24° Northeast 128 147 5,700 840 Climbing Chicago Center
04:05PM 40.7192 -89.6150 38° Northeast 129 148 6,600 660 Climbing Chicago Center
04:06PM 40.8808 -89.4526 37° Northeast  Level FlightAware Approximate
04:06PM 40.7481 -89.5842 39° Northeast 132 152 7,100  Level Chicago Center
04:07PM 40.9195 -89.4139 37° Northeast  Level FlightAware Approximate
04:07PM 40.7881 -89.5306 45° Northeast 167 192 7,100  Level Chicago Center
04:08PM 40.8225 -89.4858 44° Northeast 172 198 7,100 -60 Level Chicago Center
04:09PM 40.8592 -89.4461 39° Northeast 172 198 7,000 -60 Descending Chicago Center
04:10PM 40.8956 -89.4064 40° Northeast 170 196 7,000  Level Chicago Center
04:11PM 40.9325 -89.3681 38° Northeast 170 196 7,000  Level Chicago Center
04:12PM 40.9686 -89.3289 39° Northeast 168 193 7,000  Level Chicago Center
04:13PM 41.0053 -89.2886 40° Northeast 170 196 7,000  Level Chicago Center
04:14PM 41.0483 -89.2408 40° Northeast 169 194 7,000  Level Chicago Center
04:15PM 41.0872 -89.2022 37° Northeast 172 198 7,000  Level Chicago Center
04:16PM 41.1264 -89.1583 40° Northeast 172 198 7,000  Level Chicago Center
04:17PM 41.1619 -89.1194 39° Northeast 168 193 7,000  Level Chicago Center
04:18PM 41.1981 -89.0786 40° Northeast 169 194 7,000  Level Chicago Center
04:19PM 41.2342 -89.0383 40° Northeast 170 196 7,000  Level Chicago Center
04:20PM 41.2697 -88.9994 39° Northeast 168 193 7,000  Level Chicago Center
04:21PM 41.3064 -88.9594 39° Northeast 170 196 7,000  Level Chicago Center
04:22PM 41.3422 -88.9192 40° Northeast 170 196 7,000  Level Chicago Center
04:23PM 41.3864 -88.8694 40° Northeast 173 199 7,000 -420 Level Chicago Center
04:24PM 41.4244 -88.8244 42° Northeast 183 211 6,200 -480 Descending Chicago Center
04:25PM 41.4667 -88.7794 39° Northeast 193 222 6,100 -60 Descending Chicago Center
04:26PM 41.5056 -88.7417 36° Northeast 180 207 6,100  Level Chicago Center
04:27PM 41.5414 -88.6992 42° Northeast 175 201 6,100  Level Chicago Center
04:28PM 41.5778 -88.6583 40° Northeast 173 199 6,100  Level Chicago Center
04:29PM 41.6206 -88.6078 41° Northeast 173 199 6,100 -180 Level Chicago Center
04:31PM 41.6661 -88.5847 21° North 176 203 5,800 -420 Descending Chicago Center
04:32PM 41.7156 -88.5644 17° North 185 213 5,300 -540 Descending Chicago Center
04:33PM 41.7633 -88.5397 21° North 185 213 4,700 -660 Descending Chicago Center
04:34PM 41.8125 -88.5158 20° North 186 214 4,000 -360 Descending Chicago Center
04:35PM 41.8586 -88.4950 19° North 183 211 4,000  Level Chicago Center
04:36PM 41.9019 -88.4722 21° North 175 201 4,000  Level Chicago Center
04:37PM 41.9522 -88.4494 19° North 167 192 4,000 -300 Level Chicago Center
04:38PM 41.9944 -88.4278 21° North 164 189 3,500 -300 Descending Chicago Center
04:39PM 42.0361 -88.4067 21° North 164 189 3,500  Level Chicago Center
04:41PM 42.0632 -88.3104 69° East  Level FlightAware Approximate
04:48PM 42.2068 -88.3230 90° East  Level Estimated
04:49PM 42.2068 -88.3230 270° West  Level Estimated